sensor_id;sensor_type;location;lat;lon;timestamp;P1;durP1;ratioP1;P2;durP2;ratioP2
76667;SDS011;65585;51.166;16.922;2023-04-03T00:01:22;5.38;;;2.15;;
76667;SDS011;65585;51.166;16.922;2023-04-03T00:03:56;4.07;;;2.20;;
76667;SDS011;65585;51.166;16.922;2023-04-03T00:06:47;3.33;;;1.75;;
76667;SDS011;65585;51.166;16.922;2023-04-03T00:09:21;4.35;;;2.00;;
76667;SDS011;65585;51.166;16.922;2023-04-03T00:11:58;5.88;;;2.15;;
76667;SDS011;65585;51.166;16.922;2023-04-03T00:14:29;3.80;;;1.95;;
76667;SDS011;65585;51.166;16.922;2023-04-03T00:17:07;6.20;;;2.30;;
76667;SDS011;65585;51.166;16.922;2023-04-03T00:19:42;8.00;;;2.22;;
76667;SDS011;65585;51.166;16.922;2023-04-03T00:25:41;5.93;;;2.45;;
76667;SDS011;65585;51.166;16.922;2023-04-03T00:28:17;5.20;;;2.60;;
76667;SDS011;65585;51.166;16.922;2023-04-03T00:30:54;6.32;;;2.28;;
76667;SDS011;65585;51.166;16.922;2023-04-03T00:33:50;3.42;;;1.60;;
76667;SDS011;65585;51.166;16.922;2023-04-03T00:36:19;5.90;;;2.40;;
76667;SDS011;65585;51.166;16.922;2023-04-03T00:38:59;3.40;;;2.30;;
76667;SDS011;65585;51.166;16.922;2023-04-03T00:41:51;3.33;;;2.38;;
76667;SDS011;65585;51.166;16.922;2023-04-03T00:47:42;5.25;;;2.67;;
76667;SDS011;65585;51.166;16.922;2023-04-03T00:50:27;3.22;;;2.30;;
76667;SDS011;65585;51.166;16.922;2023-04-03T00:53:11;6.75;;;2.75;;
76667;SDS011;65585;51.166;16.922;2023-04-03T00:55:54;5.63;;;2.17;;
76667;SDS011;65585;51.166;16.922;2023-04-03T00:58:25;3.45;;;2.10;;
76667;SDS011;65585;51.166;16.922;2023-04-03T01:01:18;5.25;;;2.13;;
76667;SDS011;65585;51.166;16.922;2023-04-03T01:03:49;5.57;;;2.10;;
76667;SDS011;65585;51.166;16.922;2023-04-03T01:06:35;5.70;;;2.25;;
76667;SDS011;65585;51.166;16.922;2023-04-03T01:09:08;5.18;;;2.40;;
76667;SDS011;65585;51.166;16.922;2023-04-03T01:11:41;4.82;;;2.22;;
76667;SDS011;65585;51.166;16.922;2023-04-03T01:14:13;4.10;;;2.15;;
76667;SDS011;65585;51.166;16.922;2023-04-03T01:19:31;5.35;;;2.50;;
76667;SDS011;65585;51.166;16.922;2023-04-03T01:22:25;5.80;;;2.08;;
76667;SDS011;65585;51.166;16.922;2023-04-03T01:25:20;4.70;;;1.80;;
76667;SDS011;65585;51.166;16.922;2023-04-03T01:28:54;3.70;;;2.30;;
76667;SDS011;65585;51.166;16.922;2023-04-03T01:31:45;3.58;;;2.17;;
76667;SDS011;65585;51.166;16.922;2023-04-03T01:34:25;6.38;;;2.38;;
76667;SDS011;65585;51.166;16.922;2023-04-03T01:37:04;5.18;;;1.92;;
76667;SDS011;65585;51.166;16.922;2023-04-03T01:39:38;4.35;;;2.63;;
76667;SDS011;65585;51.166;16.922;2023-04-03T01:42:17;7.32;;;2.25;;
76667;SDS011;65585;51.166;16.922;2023-04-03T01:44:50;7.05;;;2.13;;
76667;SDS011;65585;51.166;16.922;2023-04-03T01:51:07;6.00;;;2.58;;
76667;SDS011;65585;51.166;16.922;2023-04-03T01:54:33;3.75;;;1.98;;
76667;SDS011;65585;51.166;16.922;2023-04-03T02:03:19;3.65;;;2.00;;
76667;SDS011;65585;51.166;16.922;2023-04-03T02:06:28;4.68;;;2.00;;
76667;SDS011;65585;51.166;16.922;2023-04-03T02:09:06;3.80;;;2.33;;
76667;SDS011;65585;51.166;16.922;2023-04-03T02:11:35;4.28;;;2.08;;
76667;SDS011;65585;51.166;16.922;2023-04-03T02:14:02;6.28;;;2.50;;
76667;SDS011;65585;51.166;16.922;2023-04-03T02:16:38;9.18;;;2.47;;
76667;SDS011;65585;51.166;16.922;2023-04-03T02:19:28;3.97;;;2.08;;
76667;SDS011;65585;51.166;16.922;2023-04-03T02:22:15;3.47;;;2.03;;
76667;SDS011;65585;51.166;16.922;2023-04-03T02:24:50;4.53;;;2.45;;
76667;SDS011;65585;51.166;16.922;2023-04-03T02:27:43;6.88;;;2.90;;
76667;SDS011;65585;51.166;16.922;2023-04-03T02:30:28;7.78;;;2.97;;
76667;SDS011;65585;51.166;16.922;2023-04-03T02:33:03;7.25;;;2.38;;
76667;SDS011;65585;51.166;16.922;2023-04-03T02:35:47;5.22;;;2.30;;
76667;SDS011;65585;51.166;16.922;2023-04-03T02:38:31;8.98;;;3.03;;
76667;SDS011;65585;51.166;16.922;2023-04-03T02:41:23;6.55;;;1.85;;
76667;SDS011;65585;51.166;16.922;2023-04-03T02:44:16;5.75;;;2.50;;
76667;SDS011;65585;51.166;16.922;2023-04-03T02:46:54;6.28;;;2.80;;
76667;SDS011;65585;51.166;16.922;2023-04-03T02:49:34;3.00;;;1.77;;
76667;SDS011;65585;51.166;16.922;2023-04-03T02:52:01;5.80;;;2.33;;
76667;SDS011;65585;51.166;16.922;2023-04-03T02:54:30;6.97;;;2.22;;
76667;SDS011;65585;51.166;16.922;2023-04-03T02:57:28;5.57;;;2.65;;
76667;SDS011;65585;51.166;16.922;2023-04-03T03:00:31;6.50;;;1.85;;
76667;SDS011;65585;51.166;16.922;2023-04-03T03:03:10;5.32;;;2.67;;
76667;SDS011;65585;51.166;16.922;2023-04-03T03:08:42;6.90;;;2.88;;
76667;SDS011;65585;51.166;16.922;2023-04-03T03:11:14;2.95;;;1.92;;
76667;SDS011;65585;51.166;16.922;2023-04-03T03:13:58;4.70;;;2.05;;
76667;SDS011;65585;51.166;16.922;2023-04-03T03:16:36;6.85;;;2.13;;
76667;SDS011;65585;51.166;16.922;2023-04-03T03:19:12;5.47;;;2.20;;
76667;SDS011;65585;51.166;16.922;2023-04-03T03:22:02;4.68;;;2.35;;
76667;SDS011;65585;51.166;16.922;2023-04-03T03:24:39;5.95;;;2.45;;
76667;SDS011;65585;51.166;16.922;2023-04-03T03:27:20;5.03;;;2.28;;
76667;SDS011;65585;51.166;16.922;2023-04-03T03:30:09;7.30;;;2.97;;
76667;SDS011;65585;51.166;16.922;2023-04-03T03:32:56;7.75;;;2.53;;
76667;SDS011;65585;51.166;16.922;2023-04-03T03:35:36;6.78;;;3.20;;
76667;SDS011;65585;51.166;16.922;2023-04-03T03:41:20;6.45;;;2.67;;
76667;SDS011;65585;51.166;16.922;2023-04-03T03:43:56;8.30;;;3.00;;
76667;SDS011;65585;51.166;16.922;2023-04-03T03:46:42;4.75;;;2.25;;
76667;SDS011;65585;51.166;16.922;2023-04-03T03:52:14;7.70;;;2.50;;
76667;SDS011;65585;51.166;16.922;2023-04-03T03:54:44;8.23;;;2.83;;
76667;SDS011;65585;51.166;16.922;2023-04-03T03:58:01;5.47;;;2.60;;
76667;SDS011;65585;51.166;16.922;2023-04-03T04:01:05;8.02;;;3.28;;
76667;SDS011;65585;51.166;16.922;2023-04-03T04:03:50;4.78;;;3.15;;
76667;SDS011;65585;51.166;16.922;2023-04-03T04:06:34;6.30;;;2.75;;
76667;SDS011;65585;51.166;16.922;2023-04-03T04:09:05;4.40;;;2.80;;
76667;SDS011;65585;51.166;16.922;2023-04-03T04:11:34;4.70;;;2.55;;
76667;SDS011;65585;51.166;16.922;2023-04-03T04:14:21;5.25;;;2.88;;
76667;SDS011;65585;51.166;16.922;2023-04-03T04:17:10;4.30;;;2.22;;
76667;SDS011;65585;51.166;16.922;2023-04-03T04:19:44;6.47;;;2.70;;
76667;SDS011;65585;51.166;16.922;2023-04-03T04:22:17;7.32;;;2.63;;
76667;SDS011;65585;51.166;16.922;2023-04-03T04:24:42;6.40;;;3.30;;
76667;SDS011;65585;51.166;16.922;2023-04-03T04:27:09;4.20;;;1.98;;
76667;SDS011;65585;51.166;16.922;2023-04-03T04:29:35;9.70;;;3.42;;
76667;SDS011;65585;51.166;16.922;2023-04-03T04:32:10;5.75;;;3.00;;
76667;SDS011;65585;51.166;16.922;2023-04-03T04:38:16;4.10;;;2.65;;
76667;SDS011;65585;51.166;16.922;2023-04-03T04:41:31;2.78;;;2.08;;
76667;SDS011;65585;51.166;16.922;2023-04-03T04:44:15;7.00;;;2.53;;
76667;SDS011;65585;51.166;16.922;2023-04-03T04:46:41;9.93;;;3.10;;
76667;SDS011;65585;51.166;16.922;2023-04-03T04:49:08;7.07;;;2.65;;
76667;SDS011;65585;51.166;16.922;2023-04-03T04:51:34;4.03;;;2.50;;
76667;SDS011;65585;51.166;16.922;2023-04-03T04:54:00;4.85;;;2.40;;
76667;SDS011;65585;51.166;16.922;2023-04-03T04:56:26;6.65;;;3.10;;
76667;SDS011;65585;51.166;16.922;2023-04-03T04:58:53;4.40;;;2.72;;
76667;SDS011;65585;51.166;16.922;2023-04-03T05:01:24;5.22;;;2.17;;
76667;SDS011;65585;51.166;16.922;2023-04-03T05:04:32;10.10;;;2.97;;
76667;SDS011;65585;51.166;16.922;2023-04-03T05:07:20;5.50;;;2.80;;
76667;SDS011;65585;51.166;16.922;2023-04-03T05:19:57;5.65;;;2.47;;
76667;SDS011;65585;51.166;16.922;2023-04-03T05:22:33;4.32;;;2.30;;
76667;SDS011;65585;51.166;16.922;2023-04-03T05:25:15;5.07;;;2.35;;
76667;SDS011;65585;51.166;16.922;2023-04-03T05:28:05;4.20;;;2.03;;
76667;SDS011;65585;51.166;16.922;2023-04-03T05:31:01;9.18;;;2.55;;
76667;SDS011;65585;51.166;16.922;2023-04-03T05:34:10;2.70;;;1.80;;
76667;SDS011;65585;51.166;16.922;2023-04-03T05:36:51;5.05;;;2.30;;
76667;SDS011;65585;51.166;16.922;2023-04-03T05:39:31;3.83;;;2.42;;
76667;SDS011;65585;51.166;16.922;2023-04-03T05:42:05;6.15;;;2.95;;
76667;SDS011;65585;51.166;16.922;2023-04-03T05:44:43;7.30;;;2.65;;
76667;SDS011;65585;51.166;16.922;2023-04-03T05:47:43;5.35;;;2.53;;
76667;SDS011;65585;51.166;16.922;2023-04-03T05:50:18;5.22;;;2.45;;
76667;SDS011;65585;51.166;16.922;2023-04-03T05:53:06;6.28;;;2.72;;
76667;SDS011;65585;51.166;16.922;2023-04-03T05:56:04;4.07;;;2.42;;
76667;SDS011;65585;51.166;16.922;2023-04-03T05:58:38;3.65;;;2.30;;
76667;SDS011;65585;51.166;16.922;2023-04-03T06:01:32;5.47;;;2.65;;
76667;SDS011;65585;51.166;16.922;2023-04-03T06:04:16;5.03;;;1.95;;
76667;SDS011;65585;51.166;16.922;2023-04-03T06:07:23;6.90;;;2.42;;
76667;SDS011;65585;51.166;16.922;2023-04-03T06:17:21;8.05;;;2.67;;
76667;SDS011;65585;51.166;16.922;2023-04-03T06:19:56;3.00;;;1.98;;
76667;SDS011;65585;51.166;16.922;2023-04-03T06:22:43;10.25;;;2.80;;
76667;SDS011;65585;51.166;16.922;2023-04-03T06:25:09;4.20;;;2.47;;
76667;SDS011;65585;51.166;16.922;2023-04-03T06:27:36;3.67;;;2.53;;
76667;SDS011;65585;51.166;16.922;2023-04-03T06:30:02;5.82;;;3.33;;
76667;SDS011;65585;51.166;16.922;2023-04-03T06:32:29;5.97;;;2.22;;
76667;SDS011;65585;51.166;16.922;2023-04-03T06:34:55;4.38;;;2.80;;
76667;SDS011;65585;51.166;16.922;2023-04-03T06:37:23;5.53;;;2.85;;
76667;SDS011;65585;51.166;16.922;2023-04-03T06:39:51;6.85;;;2.85;;
76667;SDS011;65585;51.166;16.922;2023-04-03T06:49:12;7.75;;;2.72;;
76667;SDS011;65585;51.166;16.922;2023-04-03T06:51:39;4.78;;;2.90;;
76667;SDS011;65585;51.166;16.922;2023-04-03T06:54:05;4.03;;;2.70;;
76667;SDS011;65585;51.166;16.922;2023-04-03T06:56:32;3.17;;;2.47;;
76667;SDS011;65585;51.166;16.922;2023-04-03T06:58:58;8.60;;;2.90;;
76667;SDS011;65585;51.166;16.922;2023-04-03T07:01:26;6.43;;;2.83;;
76667;SDS011;65585;51.166;16.922;2023-04-03T07:06:20;4.13;;;2.72;;
76667;SDS011;65585;51.166;16.922;2023-04-03T07:08:47;4.75;;;2.78;;
76667;SDS011;65585;51.166;16.922;2023-04-03T07:11:16;4.28;;;2.47;;
76667;SDS011;65585;51.166;16.922;2023-04-03T07:21:28;4.63;;;2.83;;
76667;SDS011;65585;51.166;16.922;2023-04-03T07:23:54;8.15;;;2.67;;
76667;SDS011;65585;51.166;16.922;2023-04-03T07:26:21;6.45;;;2.58;;
76667;SDS011;65585;51.166;16.922;2023-04-03T07:28:48;3.90;;;1.70;;
76667;SDS011;65585;51.166;16.922;2023-04-03T07:31:15;4.47;;;2.50;;
76667;SDS011;65585;51.166;16.922;2023-04-03T07:33:43;5.28;;;2.60;;
76667;SDS011;65585;51.166;16.922;2023-04-03T07:36:11;5.95;;;2.42;;
76667;SDS011;65585;51.166;16.922;2023-04-03T07:38:41;6.13;;;2.60;;
76667;SDS011;65585;51.166;16.922;2023-04-03T07:41:07;5.38;;;2.10;;
76667;SDS011;65585;51.166;16.922;2023-04-03T07:43:38;6.72;;;2.80;;
76667;SDS011;65585;51.166;16.922;2023-04-03T07:52:24;4.13;;;2.60;;
76667;SDS011;65585;51.166;16.922;2023-04-03T07:55:46;6.38;;;3.05;;
76667;SDS011;65585;51.166;16.922;2023-04-03T07:58:58;3.38;;;2.00;;
76667;SDS011;65585;51.166;16.922;2023-04-03T08:01:24;5.25;;;2.20;;
76667;SDS011;65585;51.166;16.922;2023-04-03T08:03:50;4.20;;;2.53;;
76667;SDS011;65585;51.166;16.922;2023-04-03T08:06:17;4.15;;;2.38;;
76667;SDS011;65585;51.166;16.922;2023-04-03T08:08:43;6.20;;;2.30;;
76667;SDS011;65585;51.166;16.922;2023-04-03T08:11:10;7.30;;;2.85;;
76667;SDS011;65585;51.166;16.922;2023-04-03T08:13:44;4.88;;;2.42;;
76667;SDS011;65585;51.166;16.922;2023-04-03T08:16:48;3.83;;;1.80;;
76667;SDS011;65585;51.166;16.922;2023-04-03T08:22:48;4.30;;;2.28;;
76667;SDS011;65585;51.166;16.922;2023-04-03T08:25:44;2.65;;;1.60;;
76667;SDS011;65585;51.166;16.922;2023-04-03T08:28:42;3.22;;;2.03;;
76667;SDS011;65585;51.166;16.922;2023-04-03T08:31:16;3.67;;;1.88;;
76667;SDS011;65585;51.166;16.922;2023-04-03T08:34:09;3.53;;;2.03;;
76667;SDS011;65585;51.166;16.922;2023-04-03T08:37:21;3.65;;;1.80;;
76667;SDS011;65585;51.166;16.922;2023-04-03T08:53:48;3.08;;;2.10;;
76667;SDS011;65585;51.166;16.922;2023-04-03T09:01:05;4.30;;;1.90;;
76667;SDS011;65585;51.166;16.922;2023-04-03T09:10:58;3.35;;;1.70;;
76667;SDS011;65585;51.166;16.922;2023-04-03T09:24:08;3.35;;;1.77;;
76667;SDS011;65585;51.166;16.922;2023-04-03T09:26:48;4.38;;;2.22;;
76667;SDS011;65585;51.166;16.922;2023-04-03T09:29:18;3.08;;;1.80;;
76667;SDS011;65585;51.166;16.922;2023-04-03T09:31:47;3.78;;;2.10;;
76667;SDS011;65585;51.166;16.922;2023-04-03T09:38:20;5.00;;;2.00;;
76667;SDS011;65585;51.166;16.922;2023-04-03T09:44:21;5.25;;;1.67;;
76667;SDS011;65585;51.166;16.922;2023-04-03T09:46:50;4.00;;;2.10;;
76667;SDS011;65585;51.166;16.922;2023-04-03T09:49:16;4.55;;;1.85;;
76667;SDS011;65585;51.166;16.922;2023-04-03T09:51:43;2.58;;;1.63;;
76667;SDS011;65585;51.166;16.922;2023-04-03T09:54:30;3.55;;;1.70;;
76667;SDS011;65585;51.166;16.922;2023-04-03T09:57:06;3.72;;;1.98;;
76667;SDS011;65585;51.166;16.922;2023-04-03T09:59:34;4.82;;;1.83;;
76667;SDS011;65585;51.166;16.922;2023-04-03T10:06:21;3.58;;;1.88;;
76667;SDS011;65585;51.166;16.922;2023-04-03T10:21:41;2.75;;;2.03;;
76667;SDS011;65585;51.166;16.922;2023-04-03T10:25:01;4.10;;;2.13;;
76667;SDS011;65585;51.166;16.922;2023-04-03T10:29:42;3.28;;;2.00;;
76667;SDS011;65585;51.166;16.922;2023-04-03T10:35:10;4.25;;;1.90;;
76667;SDS011;65585;51.166;16.922;2023-04-03T10:42:10;2.70;;;1.73;;
76667;SDS011;65585;51.166;16.922;2023-04-03T11:05:59;3.20;;;1.92;;
76667;SDS011;65585;51.166;16.922;2023-04-03T11:14:23;2.08;;;1.60;;
76667;SDS011;65585;51.166;16.922;2023-04-03T11:19:57;3.47;;;1.70;;
76667;SDS011;65585;51.166;16.922;2023-04-03T11:23:29;3.78;;;1.83;;
76667;SDS011;65585;51.166;16.922;2023-04-03T11:25:37;3.08;;;1.90;;
76667;SDS011;65585;51.166;16.922;2023-04-03T11:32:55;2.85;;;1.90;;
76667;SDS011;65585;51.166;16.922;2023-04-03T11:35:52;4.00;;;2.03;;
76667;SDS011;65585;51.166;16.922;2023-04-03T11:44:49;2.15;;;1.60;;
76667;SDS011;65585;51.166;16.922;2023-04-03T12:51:00;2.80;;;2.15;;
76667;SDS011;65585;51.166;16.922;2023-04-03T12:53:31;5.40;;;2.20;;
76667;SDS011;65585;51.166;16.922;2023-04-03T12:58:49;2.97;;;2.17;;
76667;SDS011;65585;51.166;16.922;2023-04-03T13:01:17;2.63;;;2.08;;
76667;SDS011;65585;51.166;16.922;2023-04-03T13:03:48;4.70;;;2.30;;
76667;SDS011;65585;51.166;16.922;2023-04-03T13:06:22;4.05;;;2.42;;
76667;SDS011;65585;51.166;16.922;2023-04-03T13:27:26;3.67;;;2.28;;
76667;SDS011;65585;51.166;16.922;2023-04-03T13:30:17;3.20;;;2.38;;
76667;SDS011;65585;51.166;16.922;2023-04-03T13:38:57;4.22;;;2.40;;
76667;SDS011;65585;51.166;16.922;2023-04-03T13:41:32;3.78;;;2.10;;
76667;SDS011;65585;51.166;16.922;2023-04-03T13:44:14;3.60;;;2.25;;
76667;SDS011;65585;51.166;16.922;2023-04-03T13:46:53;3.15;;;2.13;;
76667;SDS011;65585;51.166;16.922;2023-04-03T13:52:03;3.15;;;2.20;;
76667;SDS011;65585;51.166;16.922;2023-04-03T13:54:52;2.53;;;1.83;;
76667;SDS011;65585;51.166;16.922;2023-04-03T13:57:21;4.38;;;2.22;;
76667;SDS011;65585;51.166;16.922;2023-04-03T14:05:07;4.20;;;2.45;;
76667;SDS011;65585;51.166;16.922;2023-04-03T14:07:34;3.28;;;2.13;;
76667;SDS011;65585;51.166;16.922;2023-04-03T14:10:06;4.80;;;2.40;;
76667;SDS011;65585;51.166;16.922;2023-04-03T14:12:54;3.05;;;1.83;;
76667;SDS011;65585;51.166;16.922;2023-04-03T14:15:23;3.47;;;2.38;;
76667;SDS011;65585;51.166;16.922;2023-04-03T14:18:28;4.35;;;1.90;;
76667;SDS011;65585;51.166;16.922;2023-04-03T14:21:30;3.97;;;2.15;;
76667;SDS011;65585;51.166;16.922;2023-04-03T14:28:23;3.63;;;2.15;;
76667;SDS011;65585;51.166;16.922;2023-04-03T14:32:21;6.75;;;2.58;;
76667;SDS011;65585;51.166;16.922;2023-04-03T14:35:45;5.75;;;2.30;;
76667;SDS011;65585;51.166;16.922;2023-04-03T14:38:44;4.63;;;2.50;;
76667;SDS011;65585;51.166;16.922;2023-04-03T14:41:46;3.33;;;2.28;;
76667;SDS011;65585;51.166;16.922;2023-04-03T14:44:24;3.58;;;2.10;;
76667;SDS011;65585;51.166;16.922;2023-04-03T14:47:19;4.63;;;2.80;;
76667;SDS011;65585;51.166;16.922;2023-04-03T14:50:12;7.45;;;3.25;;
76667;SDS011;65585;51.166;16.922;2023-04-03T14:52:41;3.95;;;2.22;;
76667;SDS011;65585;51.166;16.922;2023-04-03T14:55:07;3.70;;;2.47;;
76667;SDS011;65585;51.166;16.922;2023-04-03T14:57:36;3.75;;;2.90;;
76667;SDS011;65585;51.166;16.922;2023-04-03T15:09:36;4.95;;;2.15;;
76667;SDS011;65585;51.166;16.922;2023-04-03T15:12:36;4.53;;;2.13;;
76667;SDS011;65585;51.166;16.922;2023-04-03T15:15:39;3.58;;;2.17;;
76667;SDS011;65585;51.166;16.922;2023-04-03T15:18:56;3.88;;;2.42;;
76667;SDS011;65585;51.166;16.922;2023-04-03T15:21:29;3.55;;;2.47;;
76667;SDS011;65585;51.166;16.922;2023-04-03T15:23:58;6.72;;;2.60;;
76667;SDS011;65585;51.166;16.922;2023-04-03T15:26:37;3.97;;;2.40;;
76667;SDS011;65585;51.166;16.922;2023-04-03T15:30:04;2.97;;;2.60;;
76667;SDS011;65585;51.166;16.922;2023-04-03T15:33:18;3.20;;;2.10;;
76667;SDS011;65585;51.166;16.922;2023-04-03T15:35:45;4.57;;;2.25;;
76667;SDS011;65585;51.166;16.922;2023-04-03T15:38:11;5.60;;;1.95;;
76667;SDS011;65585;51.166;16.922;2023-04-03T15:40:38;3.60;;;2.00;;
76667;SDS011;65585;51.166;16.922;2023-04-03T15:43:06;3.33;;;2.22;;
76667;SDS011;65585;51.166;16.922;2023-04-03T15:45:57;4.35;;;2.58;;
76667;SDS011;65585;51.166;16.922;2023-04-03T15:48:32;3.17;;;2.03;;
76667;SDS011;65585;51.166;16.922;2023-04-03T15:50:59;5.03;;;2.45;;
76667;SDS011;65585;51.166;16.922;2023-04-03T15:53:29;4.43;;;2.63;;
76667;SDS011;65585;51.166;16.922;2023-04-03T15:56:01;3.83;;;2.33;;
76667;SDS011;65585;51.166;16.922;2023-04-03T15:58:44;3.50;;;2.28;;
76667;SDS011;65585;51.166;16.922;2023-04-03T16:01:13;2.85;;;2.05;;
76667;SDS011;65585;51.166;16.922;2023-04-03T16:03:45;5.22;;;2.88;;
76667;SDS011;65585;51.166;16.922;2023-04-03T16:06:12;3.65;;;2.33;;
76667;SDS011;65585;51.166;16.922;2023-04-03T16:08:54;4.47;;;2.42;;
76667;SDS011;65585;51.166;16.922;2023-04-03T16:11:28;4.50;;;2.53;;
76667;SDS011;65585;51.166;16.922;2023-04-03T16:13:58;5.30;;;2.22;;
76667;SDS011;65585;51.166;16.922;2023-04-03T16:16:30;5.78;;;2.42;;
76667;SDS011;65585;51.166;16.922;2023-04-03T16:19:13;4.18;;;2.10;;
76667;SDS011;65585;51.166;16.922;2023-04-03T16:21:40;2.75;;;1.90;;
76667;SDS011;65585;51.166;16.922;2023-04-03T16:24:08;4.47;;;2.30;;
76667;SDS011;65585;51.166;16.922;2023-04-03T16:26:41;6.32;;;3.33;;
76667;SDS011;65585;51.166;16.922;2023-04-03T16:29:07;6.35;;;2.65;;
76667;SDS011;65585;51.166;16.922;2023-04-03T16:31:34;4.22;;;2.33;;
76667;SDS011;65585;51.166;16.922;2023-04-03T16:34:00;5.20;;;2.75;;
76667;SDS011;65585;51.166;16.922;2023-04-03T16:36:27;5.72;;;3.17;;
76667;SDS011;65585;51.166;16.922;2023-04-03T16:38:54;3.88;;;2.50;;
76667;SDS011;65585;51.166;16.922;2023-04-03T16:41:20;4.63;;;2.72;;
76667;SDS011;65585;51.166;16.922;2023-04-03T16:43:46;7.68;;;2.63;;
76667;SDS011;65585;51.166;16.922;2023-04-03T16:46:13;5.50;;;2.33;;
76667;SDS011;65585;51.166;16.922;2023-04-03T16:48:39;4.28;;;2.83;;
76667;SDS011;65585;51.166;16.922;2023-04-03T16:51:05;4.28;;;2.50;;
76667;SDS011;65585;51.166;16.922;2023-04-03T16:53:31;6.88;;;3.13;;
76667;SDS011;65585;51.166;16.922;2023-04-03T16:55:58;11.00;;;3.80;;
76667;SDS011;65585;51.166;16.922;2023-04-03T16:58:25;6.68;;;3.78;;
76667;SDS011;65585;51.166;16.922;2023-04-03T17:00:51;4.88;;;2.75;;
76667;SDS011;65585;51.166;16.922;2023-04-03T17:03:18;5.35;;;2.70;;
76667;SDS011;65585;51.166;16.922;2023-04-03T17:05:48;4.97;;;2.80;;
76667;SDS011;65585;51.166;16.922;2023-04-03T17:08:15;7.45;;;2.67;;
76667;SDS011;65585;51.166;16.922;2023-04-03T17:10:42;3.92;;;2.40;;
76667;SDS011;65585;51.166;16.922;2023-04-03T17:13:08;4.03;;;2.40;;
76667;SDS011;65585;51.166;16.922;2023-04-03T17:15:35;3.55;;;2.35;;
76667;SDS011;65585;51.166;16.922;2023-04-03T17:18:01;4.38;;;1.98;;
76667;SDS011;65585;51.166;16.922;2023-04-03T17:20:28;6.75;;;4.13;;
76667;SDS011;65585;51.166;16.922;2023-04-03T17:22:55;8.75;;;3.25;;
76667;SDS011;65585;51.166;16.922;2023-04-03T17:25:21;7.65;;;3.08;;
76667;SDS011;65585;51.166;16.922;2023-04-03T17:27:47;6.38;;;2.78;;
76667;SDS011;65585;51.166;16.922;2023-04-03T17:38:00;4.88;;;2.40;;
76667;SDS011;65585;51.166;16.922;2023-04-03T17:40:26;5.78;;;2.92;;
76667;SDS011;65585;51.166;16.922;2023-04-03T17:42:52;7.78;;;2.90;;
76667;SDS011;65585;51.166;16.922;2023-04-03T17:45:19;4.93;;;3.03;;
76667;SDS011;65585;51.166;16.922;2023-04-03T17:47:45;3.92;;;2.75;;
76667;SDS011;65585;51.166;16.922;2023-04-03T17:50:11;8.50;;;2.80;;
76667;SDS011;65585;51.166;16.922;2023-04-03T17:52:40;4.88;;;3.40;;
76667;SDS011;65585;51.166;16.922;2023-04-03T17:55:07;4.88;;;3.25;;
76667;SDS011;65585;51.166;16.922;2023-04-03T17:57:33;8.98;;;4.50;;
76667;SDS011;65585;51.166;16.922;2023-04-03T17:59:59;4.97;;;3.55;;
76667;SDS011;65585;51.166;16.922;2023-04-03T18:02:25;8.13;;;2.88;;
76667;SDS011;65585;51.166;16.922;2023-04-03T18:04:52;5.88;;;3.35;;
76667;SDS011;65585;51.166;16.922;2023-04-03T18:07:18;4.80;;;2.63;;
76667;SDS011;65585;51.166;16.922;2023-04-03T18:09:46;4.40;;;2.53;;
76667;SDS011;65585;51.166;16.922;2023-04-03T18:12:12;4.70;;;2.75;;
76667;SDS011;65585;51.166;16.922;2023-04-03T18:14:39;4.85;;;3.10;;
76667;SDS011;65585;51.166;16.922;2023-04-03T18:17:06;5.90;;;3.35;;
76667;SDS011;65585;51.166;16.922;2023-04-03T18:19:33;10.13;;;5.18;;
76667;SDS011;65585;51.166;16.922;2023-04-03T18:22:00;5.93;;;4.72;;
76667;SDS011;65585;51.166;16.922;2023-04-03T18:32:17;5.78;;;3.08;;
76667;SDS011;65585;51.166;16.922;2023-04-03T18:34:45;7.18;;;3.85;;
76667;SDS011;65585;51.166;16.922;2023-04-03T18:37:11;5.18;;;3.00;;
76667;SDS011;65585;51.166;16.922;2023-04-03T18:39:37;9.30;;;4.18;;
76667;SDS011;65585;51.166;16.922;2023-04-03T18:42:05;8.15;;;3.30;;
76667;SDS011;65585;51.166;16.922;2023-04-03T18:44:41;5.82;;;3.30;;
76667;SDS011;65585;51.166;16.922;2023-04-03T18:47:08;8.10;;;4.18;;
76667;SDS011;65585;51.166;16.922;2023-04-03T18:49:36;10.35;;;5.75;;
76667;SDS011;65585;51.166;16.922;2023-04-03T18:52:03;7.22;;;3.65;;
76667;SDS011;65585;51.166;16.922;2023-04-03T18:54:31;8.88;;;5.65;;
76667;SDS011;65585;51.166;16.922;2023-04-03T18:56:57;8.70;;;4.07;;
76667;SDS011;65585;51.166;16.922;2023-04-03T18:59:24;12.60;;;7.65;;
76667;SDS011;65585;51.166;16.922;2023-04-03T19:01:52;14.60;;;8.77;;
76667;SDS011;65585;51.166;16.922;2023-04-03T19:04:19;8.98;;;4.78;;
76667;SDS011;65585;51.166;16.922;2023-04-03T19:06:45;7.97;;;5.07;;
76667;SDS011;65585;51.166;16.922;2023-04-03T19:09:12;11.00;;;7.05;;
76667;SDS011;65585;51.166;16.922;2023-04-03T19:11:38;13.90;;;4.95;;
76667;SDS011;65585;51.166;16.922;2023-04-03T19:14:05;8.95;;;5.22;;
76667;SDS011;65585;51.166;16.922;2023-04-03T19:16:32;9.48;;;5.00;;
76667;SDS011;65585;51.166;16.922;2023-04-03T19:19:17;8.80;;;4.78;;
76667;SDS011;65585;51.166;16.922;2023-04-03T19:22:02;10.25;;;5.28;;
76667;SDS011;65585;51.166;16.922;2023-04-03T19:28:15;6.80;;;4.30;;
76667;SDS011;65585;51.166;16.922;2023-04-03T19:30:53;12.48;;;5.80;;
76667;SDS011;65585;51.166;16.922;2023-04-03T19:33:25;9.73;;;5.00;;
76667;SDS011;65585;51.166;16.922;2023-04-03T19:35:53;9.63;;;4.75;;
76667;SDS011;65585;51.166;16.922;2023-04-03T19:38:30;8.68;;;4.10;;
76667;SDS011;65585;51.166;16.922;2023-04-03T19:40:59;7.70;;;4.82;;
76667;SDS011;65585;51.166;16.922;2023-04-03T19:43:37;9.75;;;4.60;;
76667;SDS011;65585;51.166;16.922;2023-04-03T19:46:05;9.27;;;4.50;;
76667;SDS011;65585;51.166;16.922;2023-04-03T19:48:35;9.35;;;4.57;;
76667;SDS011;65585;51.166;16.922;2023-04-03T19:51:07;10.15;;;5.35;;
76667;SDS011;65585;51.166;16.922;2023-04-03T19:53:47;7.97;;;4.18;;
76667;SDS011;65585;51.166;16.922;2023-04-03T19:56:14;9.23;;;5.43;;
76667;SDS011;65585;51.166;16.922;2023-04-03T19:58:48;8.27;;;5.78;;
76667;SDS011;65585;51.166;16.922;2023-04-03T20:01:25;7.00;;;4.78;;
76667;SDS011;65585;51.166;16.922;2023-04-03T20:04:05;8.52;;;4.30;;
76667;SDS011;65585;51.166;16.922;2023-04-03T20:06:54;7.07;;;4.72;;
76667;SDS011;65585;51.166;16.922;2023-04-03T20:09:21;9.25;;;6.78;;
76667;SDS011;65585;51.166;16.922;2023-04-03T20:11:48;6.43;;;5.47;;
76667;SDS011;65585;51.166;16.922;2023-04-03T20:14:16;6.57;;;4.28;;
76667;SDS011;65585;51.166;16.922;2023-04-03T20:16:46;8.68;;;4.93;;
76667;SDS011;65585;51.166;16.922;2023-04-03T20:24:16;7.35;;;5.20;;
76667;SDS011;65585;51.166;16.922;2023-04-03T20:26:50;7.60;;;4.57;;
76667;SDS011;65585;51.166;16.922;2023-04-03T20:29:18;7.68;;;4.90;;
76667;SDS011;65585;51.166;16.922;2023-04-03T20:32:03;8.45;;;5.22;;
76667;SDS011;65585;51.166;16.922;2023-04-03T20:37:38;6.18;;;3.97;;
76667;SDS011;65585;51.166;16.922;2023-04-03T20:40:10;6.78;;;3.47;;
76667;SDS011;65585;51.166;16.922;2023-04-03T20:42:48;7.50;;;3.42;;
76667;SDS011;65585;51.166;16.922;2023-04-03T20:45:34;4.85;;;3.88;;
76667;SDS011;65585;51.166;16.922;2023-04-03T20:48:09;7.38;;;4.03;;
76667;SDS011;65585;51.166;16.922;2023-04-03T20:50:37;7.38;;;3.50;;
76667;SDS011;65585;51.166;16.922;2023-04-03T20:53:10;6.22;;;3.42;;
76667;SDS011;65585;51.166;16.922;2023-04-03T20:55:36;6.28;;;4.10;;
76667;SDS011;65585;51.166;16.922;2023-04-03T21:01:20;6.60;;;4.18;;